sensor_id;sensor_type;location;lat;lon;timestamp;pressure;altitude;pressure_sealevel;temperature;humidity
71666;BME280;59503;53.486;10.196;2023-08-07T00:01:29;100511.38;;;14.49;100.00
71666;BME280;59503;53.486;10.196;2023-08-07T00:03:54;100489.50;;;14.42;100.00
71666;BME280;59503;53.486;10.196;2023-08-07T00:06:20;100482.09;;;14.32;100.00
71666;BME280;59503;53.486;10.196;2023-08-07T00:08:45;100496.56;;;14.43;100.00
71666;BME280;59503;53.486;10.196;2023-08-07T00:11:11;100505.50;;;14.47;100.00
71666;BME280;59503;53.486;10.196;2023-08-07T00:13:36;100501.97;;;14.53;100.00
71666;BME280;59503;53.486;10.196;2023-08-07T00:16:02;100496.91;;;14.48;100.00
71666;BME280;59503;53.486;10.196;2023-08-07T00:18:28;100491.84;;;14.47;100.00
71666;BME280;59503;53.486;10.196;2023-08-07T00:20:54;100485.97;;;14.45;100.00
71666;BME280;59503;53.486;10.196;2023-08-07T00:23:19;100486.78;;;14.42;100.00
71666;BME280;59503;53.486;10.196;2023-08-07T00:25:45;100498.50;;;14.46;100.00
71666;BME280;59503;53.486;10.196;2023-08-07T00:28:10;100491.84;;;14.47;100.00
71666;BME280;59503;53.486;10.196;2023-08-07T00:30:35;100487.97;;;14.37;100.00
71666;BME280;59503;53.486;10.196;2023-08-07T00:33:01;100483.28;;;14.34;100.00
71666;BME280;59503;53.486;10.196;2023-08-07T00:35:26;100480.94;;;14.29;100.00
71666;BME280;59503;53.486;10.196;2023-08-07T00:37:51;100485.63;;;14.29;100.00
71666;BME280;59503;53.486;10.196;2023-08-07T00:40:17;100489.53;;;14.28;100.00
71666;BME280;59503;53.486;10.196;2023-08-07T00:42:42;100490.31;;;14.28;100.00
71666;BME280;59503;53.486;10.196;2023-08-07T00:45:08;100496.13;;;14.20;100.00
71666;BME280;59503;53.486;10.196;2023-08-07T00:47:33;100493.03;;;14.18;100.00
71666;BME280;59503;53.486;10.196;2023-08-07T00:49:59;100498.09;;;14.16;100.00
71666;BME280;59503;53.486;10.196;2023-08-07T00:52:25;100495.38;;;14.12;100.00
71666;BME280;59503;53.486;10.196;2023-08-07T00:54:50;100495.78;;;14.11;100.00
71666;BME280;59503;53.486;10.196;2023-08-07T00:57:16;100496.56;;;14.08;100.00
71666;BME280;59503;53.486;10.196;2023-08-07T00:59:42;100494.19;;;14.06;100.00
71666;BME280;59503;53.486;10.196;2023-08-07T01:02:09;100496.56;;;14.08;100.00
71666;BME280;59503;53.486;10.196;2023-08-07T01:04:35;100491.84;;;14.01;100.00
71666;BME280;59503;53.486;10.196;2023-08-07T01:07:00;100489.50;;;14.07;100.00
71666;BME280;59503;53.486;10.196;2023-08-07T01:09:26;100495.75;;;14.04;100.00
71666;BME280;59503;53.486;10.196;2023-08-07T01:12:00;100494.97;;;14.03;100.00
71666;BME280;59503;53.486;10.196;2023-08-07T01:14:37;100492.25;;;14.03;100.00
71666;BME280;59503;53.486;10.196;2023-08-07T01:17:09;100486.00;;;14.03;100.00
71666;BME280;59503;53.486;10.196;2023-08-07T01:19:36;100484.03;;;14.03;100.00
71666;BME280;59503;53.486;10.196;2023-08-07T01:22:08;100492.63;;;14.02;100.00
71666;BME280;59503;53.486;10.196;2023-08-07T01:24:35;100481.31;;;14.00;100.00
71666;BME280;59503;53.486;10.196;2023-08-07T01:27:35;100480.91;;;14.01;100.00
71666;BME280;59503;53.486;10.196;2023-08-07T01:30:31;100479.75;;;13.95;100.00
71666;BME280;59503;53.486;10.196;2023-08-07T01:36:14;100476.22;;;13.95;100.00
71666;BME280;59503;53.486;10.196;2023-08-07T01:38:41;100472.34;;;13.99;100.00
71666;BME280;59503;53.486;10.196;2023-08-07T01:41:07;100470.38;;;14.00;100.00
71666;BME280;59503;53.486;10.196;2023-08-07T01:43:32;100462.97;;;14.04;100.00
71666;BME280;59503;53.486;10.196;2023-08-07T01:45:58;100463.34;;;14.06;100.00
71666;BME280;59503;53.486;10.196;2023-08-07T01:48:25;100464.53;;;13.98;100.00
71666;BME280;59503;53.486;10.196;2023-08-07T01:50:50;100466.47;;;13.94;100.00
71666;BME280;59503;53.486;10.196;2023-08-07T01:53:16;100467.28;;;13.91;100.00
71666;BME280;59503;53.486;10.196;2023-08-07T01:55:41;100463.34;;;13.92;100.00
71666;BME280;59503;53.486;10.196;2023-08-07T01:58:06;100465.31;;;13.81;100.00
71666;BME280;59503;53.486;10.196;2023-08-07T02:00:32;100463.75;;;13.73;100.00
71666;BME280;59503;53.486;10.196;2023-08-07T02:02:57;100464.91;;;13.64;100.00
71666;BME280;59503;53.486;10.196;2023-08-07T02:05:23;100451.25;;;13.54;100.00
71666;BME280;59503;53.486;10.196;2023-08-07T02:07:48;100471.09;;;13.47;100.00
71666;BME280;59503;53.486;10.196;2023-08-07T02:10:13;100465.25;;;13.35;100.00
71666;BME280;59503;53.486;10.196;2023-08-07T02:12:39;100473.81;;;13.30;100.00
71666;BME280;59503;53.486;10.196;2023-08-07T02:15:05;100462.09;;;13.22;100.00
71666;BME280;59503;53.486;10.196;2023-08-07T02:17:30;100456.63;;;13.19;100.00
71666;BME280;59503;53.486;10.196;2023-08-07T02:19:56;100448.03;;;13.13;100.00
71666;BME280;59503;53.486;10.196;2023-08-07T02:22:22;100449.25;;;13.26;100.00
71666;BME280;59503;53.486;10.196;2023-08-07T02:24:47;100458.22;;;13.30;100.00
71666;BME280;59503;53.486;10.196;2023-08-07T02:27:13;100455.50;;;13.30;100.00
71666;BME280;59503;53.486;10.196;2023-08-07T02:29:38;100457.84;;;13.39;100.00
71666;BME280;59503;53.486;10.196;2023-08-07T02:32:04;100456.69;;;13.40;100.00
71666;BME280;59503;53.486;10.196;2023-08-07T02:34:30;100459.81;;;13.38;100.00
71666;BME280;59503;53.486;10.196;2023-08-07T02:36:55;100452.78;;;13.41;100.00
71666;BME280;59503;53.486;10.196;2023-08-07T02:39:21;100455.91;;;13.46;100.00
71666;BME280;59503;53.486;10.196;2023-08-07T02:41:46;100445.78;;;13.47;100.00
71666;BME280;59503;53.486;10.196;2023-08-07T02:44:12;100448.91;;;13.45;100.00
71666;BME280;59503;53.486;10.196;2023-08-07T02:46:37;100453.56;;;13.41;100.00
71666;BME280;59503;53.486;10.196;2023-08-07T02:49:03;100455.91;;;13.46;100.00
71666;BME280;59503;53.486;10.196;2023-08-07T02:51:29;100462.16;;;13.50;100.00
71666;BME280;59503;53.486;10.196;2023-08-07T02:53:54;100455.50;;;13.41;100.00
71666;BME280;59503;53.486;10.196;2023-08-07T02:56:19;100458.63;;;13.46;100.00
71666;BME280;59503;53.486;10.196;2023-08-07T02:58:45;100458.22;;;13.41;100.00
71666;BME280;59503;53.486;10.196;2023-08-07T03:01:10;100452.78;;;13.44;100.00
71666;BME280;59503;53.486;10.196;2023-08-07T03:03:36;100457.47;;;13.47;100.00
71666;BME280;59503;53.486;10.196;2023-08-07T03:06:03;100447.31;;;13.37;100.00
71666;BME280;59503;53.486;10.196;2023-08-07T03:08:28;100456.28;;;13.41;100.00
71666;BME280;59503;53.486;10.196;2023-08-07T03:10:55;100459.03;;;13.41;100.00
71666;BME280;59503;53.486;10.196;2023-08-07T03:13:21;100460.56;;;13.46;100.00
71666;BME280;59503;53.486;10.196;2023-08-07T03:15:46;100468.38;;;13.47;100.00
71666;BME280;59503;53.486;10.196;2023-08-07T03:18:14;100458.25;;;13.44;100.00
71666;BME280;59503;53.486;10.196;2023-08-07T03:20:40;100462.94;;;13.40;100.00
71666;BME280;59503;53.486;10.196;2023-08-07T03:23:05;100462.94;;;13.40;100.00
71666;BME280;59503;53.486;10.196;2023-08-07T03:25:30;100473.06;;;13.40;100.00
71666;BME280;59503;53.486;10.196;2023-08-07T03:27:56;100465.66;;;13.40;100.00
71666;BME280;59503;53.486;10.196;2023-08-07T03:30:21;100461.75;;;13.41;100.00
71666;BME280;59503;53.486;10.196;2023-08-07T03:32:47;100461.34;;;13.39;100.00
71666;BME280;59503;53.486;10.196;2023-08-07T03:35:12;100453.16;;;13.36;100.00
71666;BME280;59503;53.486;10.196;2023-08-07T03:37:37;100461.34;;;13.39;100.00
71666;BME280;59503;53.486;10.196;2023-08-07T03:40:03;100460.94;;;13.37;100.00
71666;BME280;59503;53.486;10.196;2023-08-07T03:42:29;100451.22;;;13.40;100.00
71666;BME280;59503;53.486;10.196;2023-08-07T03:44:54;100458.25;;;13.51;100.00
71666;BME280;59503;53.486;10.196;2023-08-07T03:47:19;100451.25;;;13.50;100.00
71666;BME280;59503;53.486;10.196;2023-08-07T03:49:45;100459.81;;;13.59;100.00
71666;BME280;59503;53.486;10.196;2023-08-07T03:52:10;100454.75;;;13.58;100.00
71666;BME280;59503;53.486;10.196;2023-08-07T03:54:36;100466.47;;;13.65;100.00
71666;BME280;59503;53.486;10.196;2023-08-07T03:57:01;100464.50;;;13.69;100.00
71666;BME280;59503;53.486;10.196;2023-08-07T03:59:27;100465.31;;;13.70;100.00
71666;BME280;59503;53.486;10.196;2023-08-07T04:01:53;100462.97;;;13.72;100.00
71666;BME280;59503;53.486;10.196;2023-08-07T04:04:18;100462.19;;;13.79;100.00
71666;BME280;59503;53.486;10.196;2023-08-07T04:06:43;100457.13;;;13.77;100.00
71666;BME280;59503;53.486;10.196;2023-08-07T04:09:09;100454.41;;;13.84;100.00
71666;BME280;59503;53.486;10.196;2023-08-07T04:11:35;100451.25;;;13.86;100.00
71666;BME280;59503;53.486;10.196;2023-08-07T04:14:01;100455.16;;;13.92;100.00
71666;BME280;59503;53.486;10.196;2023-08-07T04:16:27;100445.81;;;13.93;100.00
71666;BME280;59503;53.486;10.196;2023-08-07T04:18:52;100441.50;;;13.92;100.00
71666;BME280;59503;53.486;10.196;2023-08-07T04:21:18;100448.13;;;14.08;100.00
71666;BME280;59503;53.486;10.196;2023-08-07T04:23:43;100448.13;;;14.08;100.00
71666;BME280;59503;53.486;10.196;2023-08-07T04:26:09;100448.13;;;14.05;100.00
71666;BME280;59503;53.486;10.196;2023-08-07T04:28:34;100442.28;;;14.03;100.00
71666;BME280;59503;53.486;10.196;2023-08-07T04:30:59;100455.56;;;14.01;100.00
71666;BME280;59503;53.486;10.196;2023-08-07T04:33:25;100463.34;;;13.99;100.00
71666;BME280;59503;53.486;10.196;2023-08-07T04:35:50;100464.16;;;13.96;100.00
71666;BME280;59503;53.486;10.196;2023-08-07T04:38:16;100465.31;;;13.98;100.00
71666;BME280;59503;53.486;10.196;2023-08-07T04:40:49;100474.28;;;13.99;100.00
71666;BME280;59503;53.486;10.196;2023-08-07T04:43:16;100474.69;;;14.04;100.00
71666;BME280;59503;53.486;10.196;2023-08-07T04:45:42;100474.28;;;14.02;100.00
71666;BME280;59503;53.486;10.196;2023-08-07T04:48:10;100470.78;;;14.12;100.00
71666;BME280;59503;53.486;10.196;2023-08-07T04:50:36;100470.78;;;14.12;100.00
71666;BME280;59503;53.486;10.196;2023-08-07T04:53:02;100469.97;;;14.19;100.00
71666;BME280;59503;53.486;10.196;2023-08-07T04:55:27;100475.84;;;14.17;100.00
71666;BME280;59503;53.486;10.196;2023-08-07T04:57:53;100478.19;;;14.15;100.00
71666;BME280;59503;53.486;10.196;2023-08-07T05:00:20;100477.78;;;14.20;100.00
71666;BME280;59503;53.486;10.196;2023-08-07T05:02:46;100465.69;;;14.18;100.00
71666;BME280;59503;53.486;10.196;2023-08-07T05:05:13;100464.53;;;14.33;100.00
71666;BME280;59503;53.486;10.196;2023-08-07T05:07:40;100469.22;;;14.25;100.00
71666;BME280;59503;53.486;10.196;2023-08-07T05:10:06;100476.63;;;14.32;100.00
71666;BME280;59503;53.486;10.196;2023-08-07T05:12:31;100476.22;;;14.30;100.00
71666;BME280;59503;53.486;10.196;2023-08-07T05:14:57;100462.56;;;14.33;100.00
71666;BME280;59503;53.486;10.196;2023-08-07T05:17:22;100465.31;;;14.30;100.00
71666;BME280;59503;53.486;10.196;2023-08-07T05:19:47;100469.59;;;14.34;100.00
71666;BME280;59503;53.486;10.196;2023-08-07T05:22:13;100461.00;;;14.36;100.00
71666;BME280;59503;53.486;10.196;2023-08-07T05:24:39;100461.75;;;14.43;100.00
71666;BME280;59503;53.486;10.196;2023-08-07T05:27:05;100463.34;;;14.48;100.00
71666;BME280;59503;53.486;10.196;2023-08-07T05:29:33;100462.94;;;14.53;100.00
71666;BME280;59503;53.486;10.196;2023-08-07T05:31:58;100459.78;;;14.54;100.00
71666;BME280;59503;53.486;10.196;2023-08-07T05:34:24;100457.81;;;14.62;100.00
71666;BME280;59503;53.486;10.196;2023-08-07T05:36:49;100467.19;;;14.68;100.00
71666;BME280;59503;53.486;10.196;2023-08-07T05:39:15;100466.38;;;14.71;100.00
71666;BME280;59503;53.486;10.196;2023-08-07T05:41:40;100473.78;;;14.74;100.00
71666;BME280;59503;53.486;10.196;2023-08-07T05:44:06;100453.84;;;14.77;100.00
71666;BME280;59503;53.486;10.196;2023-08-07T05:46:31;100464.78;;;14.80;100.00
71666;BME280;59503;53.486;10.196;2023-08-07T05:48:57;100463.22;;;14.83;100.00
71666;BME280;59503;53.486;10.196;2023-08-07T05:51:22;100458.88;;;14.89;100.00
71666;BME280;59503;53.486;10.196;2023-08-07T05:53:48;100465.16;;;14.89;100.00
71666;BME280;59503;53.486;10.196;2023-08-07T05:56:13;100466.28;;;14.95;100.00
71666;BME280;59503;53.486;10.196;2023-08-07T05:58:38;100463.56;;;14.92;100.00
71666;BME280;59503;53.486;10.196;2023-08-07T06:01:04;100470.59;;;14.93;100.00
71666;BME280;59503;53.486;10.196;2023-08-07T06:03:30;100467.09;;;14.85;100.00
71666;BME280;59503;53.486;10.196;2023-08-07T06:05:55;100473.78;;;14.77;100.00
71666;BME280;59503;53.486;10.196;2023-08-07T06:08:21;100466.00;;;14.65;100.00
71666;BME280;59503;53.486;10.196;2023-08-07T06:10:46;100457.03;;;14.65;100.00
71666;BME280;59503;53.486;10.196;2023-08-07T06:13:12;100470.75;;;14.51;100.00
71666;BME280;59503;53.486;10.196;2023-08-07T06:15:37;100480.09;;;14.53;100.00
71666;BME280;59503;53.486;10.196;2023-08-07T06:18:03;100480.88;;;14.54;100.00
71666;BME280;59503;53.486;10.196;2023-08-07T06:20:28;100493.00;;;14.53;100.00
71666;BME280;59503;53.486;10.196;2023-08-07T06:22:53;100486.34;;;14.54;100.00
71666;BME280;59503;53.486;10.196;2023-08-07T06:25:19;100482.44;;;14.58;100.00
71666;BME280;59503;53.486;10.196;2023-08-07T06:27:44;100473.84;;;14.60;100.00
71666;BME280;59503;53.486;10.196;2023-08-07T06:30:10;100464.84;;;14.70;100.00
71666;BME280;59503;53.486;10.196;2023-08-07T06:32:36;100477.72;;;14.69;100.00
71666;BME280;59503;53.486;10.196;2023-08-07T06:35:03;100486.34;;;14.61;100.00
71666;BME280;59503;53.486;10.196;2023-08-07T06:37:28;100476.97;;;14.62;100.00
71666;BME280;59503;53.486;10.196;2023-08-07T06:39:53;100483.22;;;14.59;100.00
71666;BME280;59503;53.486;10.196;2023-08-07T06:42:19;100483.63;;;14.50;100.00
71666;BME280;59503;53.486;10.196;2023-08-07T06:44:44;100489.50;;;14.52;100.00
71666;BME280;59503;53.486;10.196;2023-08-07T06:47:10;100491.84;;;14.54;100.00
71666;BME280;59503;53.486;10.196;2023-08-07T06:49:35;100482.06;;;14.53;100.00
71666;BME280;59503;53.486;10.196;2023-08-07T06:52:01;100490.66;;;14.55;100.00
71666;BME280;59503;53.486;10.196;2023-08-07T06:54:27;100489.50;;;14.56;100.00
71666;BME280;59503;53.486;10.196;2023-08-07T06:56:53;100479.34;;;14.53;100.00
71666;BME280;59503;53.486;10.196;2023-08-07T06:59:18;100490.28;;;14.53;100.00
71666;BME280;59503;53.486;10.196;2023-08-07T07:01:43;100480.50;;;14.55;100.00
71666;BME280;59503;53.486;10.196;2023-08-07T07:04:09;100492.59;;;14.65;100.00
71666;BME280;59503;53.486;10.196;2023-08-07T07:06:34;100498.81;;;14.76;100.00
71666;BME280;59503;53.486;10.196;2023-08-07T07:09:00;100494.09;;;14.83;100.00
71666;BME280;59503;53.486;10.196;2023-08-07T07:11:25;100500.34;;;14.84;100.00
71666;BME280;59503;53.486;10.196;2023-08-07T07:13:52;100496.06;;;14.86;100.00
71666;BME280;59503;53.486;10.196;2023-08-07T07:16:18;100499.56;;;14.83;100.00
71666;BME280;59503;53.486;10.196;2023-08-07T07:18:43;100505.81;;;14.91;100.00
71666;BME280;59503;53.486;10.196;2023-08-07T07:21:09;100509.28;;;15.02;100.00
71666;BME280;59503;53.486;10.196;2023-08-07T07:23:34;100513.19;;;15.01;100.00
71666;BME280;59503;53.486;10.196;2023-08-07T07:26:00;100518.31;;;14.92;100.00
71666;BME280;59503;53.486;10.196;2023-08-07T07:28:25;100521.84;;;14.82;100.00
71666;BME280;59503;53.486;10.196;2023-08-07T07:30:51;100508.97;;;14.72;100.00
71666;BME280;59503;53.486;10.196;2023-08-07T07:33:16;100505.44;;;14.78;100.00
71666;BME280;59503;53.486;10.196;2023-08-07T07:35:41;100517.13;;;14.93;100.00
71666;BME280;59503;53.486;10.196;2023-08-07T07:38:07;100511.66;;;15.00;100.00
71666;BME280;59503;53.486;10.196;2023-08-07T07:40:36;100523.72;;;15.13;100.00
71666;BME280;59503;53.486;10.196;2023-08-07T07:43:02;100523.22;;;15.32;100.00
71666;BME280;59503;53.486;10.196;2023-08-07T07:45:27;100527.53;;;15.37;100.00
71666;BME280;59503;53.486;10.196;2023-08-07T07:47:53;100527.56;;;15.26;100.00
71666;BME280;59503;53.486;10.196;2023-08-07T07:50:18;100545.59;;;15.20;100.00
71666;BME280;59503;53.486;10.196;2023-08-07T07:52:43;100551.97;;;14.78;100.00
71666;BME280;59503;53.486;10.196;2023-08-07T07:55:09;100551.63;;;14.59;100.00
71666;BME280;59503;53.486;10.196;2023-08-07T07:57:35;100539.88;;;14.62;100.00
71666;BME280;59503;53.486;10.196;2023-08-07T08:00:01;100530.03;;;14.89;100.00
71666;BME280;59503;53.486;10.196;2023-08-07T08:02:26;100527.59;;;15.19;100.00
71666;BME280;59503;53.486;10.196;2023-08-07T08:04:52;100534.13;;;15.50;100.00
71666;BME280;59503;53.486;10.196;2023-08-07T08:07:18;100528.09;;;15.76;100.00
71666;BME280;59503;53.486;10.196;2023-08-07T08:09:44;100525.22;;;15.97;100.00
71666;BME280;59503;53.486;10.196;2023-08-07T08:12:10;100541.84;;;16.24;100.00
71666;BME280;59503;53.486;10.196;2023-08-07T08:14:36;100539.31;;;16.47;100.00
71666;BME280;59503;53.486;10.196;2023-08-07T08:17:01;100536.88;;;16.56;100.00
71666;BME280;59503;53.486;10.196;2023-08-07T08:19:26;100546.19;;;16.65;100.00
71666;BME280;59503;53.486;10.196;2023-08-07T08:21:52;100532.81;;;16.27;100.00
71666;BME280;59503;53.486;10.196;2023-08-07T08:24:17;100545.78;;;16.23;100.00
71666;BME280;59503;53.486;10.196;2023-08-07T08:26:43;100553.41;;;15.97;100.00
71666;BME280;59503;53.486;10.196;2023-08-07T08:29:09;100567.19;;;15.87;100.00
71666;BME280;59503;53.486;10.196;2023-08-07T08:31:34;100575.22;;;15.50;100.00
71666;BME280;59503;53.486;10.196;2023-08-07T08:34:00;100582.69;;;15.35;100.00
71666;BME280;59503;53.486;10.196;2023-08-07T08:36:25;100595.75;;;14.85;100.00
71666;BME280;59503;53.486;10.196;2023-08-07T08:38:51;100589.50;;;14.57;100.00
71666;BME280;59503;53.486;10.196;2023-08-07T08:41:17;100590.69;;;14.49;100.00
71666;BME280;59503;53.486;10.196;2023-08-07T08:43:45;100603.22;;;14.46;100.00
71666;BME280;59503;53.486;10.196;2023-08-07T08:46:15;100601.25;;;14.61;100.00
71666;BME280;59503;53.486;10.196;2023-08-07T08:48:48;100602.41;;;14.70;100.00
71666;BME280;59503;53.486;10.196;2023-08-07T08:51:15;100601.22;;;14.89;100.00
71666;BME280;59503;53.486;10.196;2023-08-07T08:53:42;100603.94;;;15.03;100.00
71666;BME280;59503;53.486;10.196;2023-08-07T08:56:08;100602.72;;;15.18;100.00
71666;BME280;59503;53.486;10.196;2023-08-07T08:58:34;100600.66;;;15.57;100.00
71666;BME280;59503;53.486;10.196;2023-08-07T09:01:00;100598.56;;;15.82;100.00
71666;BME280;59503;53.486;10.196;2023-08-07T09:03:26;100599.66;;;15.95;100.00
71666;BME280;59503;53.486;10.196;2023-08-07T09:05:53;100606.22;;;16.08;100.00
71666;BME280;59503;53.486;10.196;2023-08-07T09:08:21;100597.66;;;15.99;100.00
71666;BME280;59503;53.486;10.196;2023-08-07T09:10:48;100596.97;;;15.85;100.00
71666;BME280;59503;53.486;10.196;2023-08-07T09:13:14;100612.28;;;15.75;100.00
71666;BME280;59503;53.486;10.196;2023-08-07T09:15:40;100605.75;;;15.52;100.00
71666;BME280;59503;53.486;10.196;2023-08-07T09:18:07;100599.50;;;15.48;100.00
71666;BME280;59503;53.486;10.196;2023-08-07T09:20:35;100604.22;;;15.37;100.00
71666;BME280;59503;53.486;10.196;2023-08-07T09:23:01;100613.56;;;15.53;100.00
71666;BME280;59503;53.486;10.196;2023-08-07T09:25:30;100589.94;;;15.80;100.00
71666;BME280;59503;53.486;10.196;2023-08-07T09:27:57;100592.47;;;16.12;100.00
71666;BME280;59503;53.486;10.196;2023-08-07T09:30:26;100591.78;;;16.56;100.00
71666;BME280;59503;53.486;10.196;2023-08-07T09:32:52;100610.66;;;16.91;100.00
71666;BME280;59503;53.486;10.196;2023-08-07T09:35:21;100615.56;;;17.10;100.00
71666;BME280;59503;53.486;10.196;2023-08-07T09:37:46;100600.44;;;16.95;100.00
71666;BME280;59503;53.486;10.196;2023-08-07T09:40:12;100619.63;;;16.98;100.00
71666;BME280;59503;53.486;10.196;2023-08-07T09:42:40;100614.31;;;17.18;100.00
71666;BME280;59503;53.486;10.196;2023-08-07T09:45:26;100608.09;;;17.10;100.00
71666;BME280;59503;53.486;10.196;2023-08-07T09:48:03;100609.19;;;17.20;100.00
71666;BME280;59503;53.486;10.196;2023-08-07T09:50:29;100618.16;;;17.24;100.00
71666;BME280;59503;53.486;10.196;2023-08-07T09:52:56;100615.28;;;17.34;100.00
71666;BME280;59503;53.486;10.196;2023-08-07T09:55:22;100605.03;;;17.05;100.00
71666;BME280;59503;53.486;10.196;2023-08-07T09:57:48;100619.47;;;17.12;100.00
71666;BME280;59503;53.486;10.196;2023-08-07T10:00:13;100626.00;;;16.88;94.96
71666;BME280;59503;53.486;10.196;2023-08-07T10:02:46;100618.19;;;16.83;100.00
71666;BME280;59503;53.486;10.196;2023-08-07T10:05:11;100626.69;;;16.96;100.00
71666;BME280;59503;53.486;10.196;2023-08-07T10:07:38;100614.25;;;16.84;96.10
71666;BME280;59503;53.486;10.196;2023-08-07T10:10:04;100615.03;;;16.85;100.00
71666;BME280;59503;53.486;10.196;2023-08-07T10:12:31;100596.72;;;16.75;95.66
71666;BME280;59503;53.486;10.196;2023-08-07T10:14:59;100619.13;;;16.66;95.17
71666;BME280;59503;53.486;10.196;2023-08-07T10:17:24;100624.41;;;16.87;100.00
71666;BME280;59503;53.486;10.196;2023-08-07T10:19:53;100627.41;;;17.03;100.00
71666;BME280;59503;53.486;10.196;2023-08-07T10:22:19;100614.84;;;17.02;100.00
71666;BME280;59503;53.486;10.196;2023-08-07T10:24:48;100623.81;;;17.10;100.00
71666;BME280;59503;53.486;10.196;2023-08-07T10:27:16;100633.38;;;17.32;100.00
71666;BME280;59503;53.486;10.196;2023-08-07T10:29:46;100635.53;;;17.51;100.00
71666;BME280;59503;53.486;10.196;2023-08-07T10:32:14;100622.47;;;17.62;94.05
71666;BME280;59503;53.486;10.196;2023-08-07T10:34:46;100618.78;;;17.72;99.13
71666;BME280;59503;53.486;10.196;2023-08-07T10:37:41;100624.28;;;18.02;99.41
71666;BME280;59503;53.486;10.196;2023-08-07T10:40:08;100608.06;;;18.08;90.12
71666;BME280;59503;53.486;10.196;2023-08-07T10:42:58;100631.13;;;18.17;89.68
71666;BME280;59503;53.486;10.196;2023-08-07T10:45:24;100607.16;;;17.88;88.58
71666;BME280;59503;53.486;10.196;2023-08-07T10:48:19;100639.16;;;17.75;88.89
71666;BME280;59503;53.486;10.196;2023-08-07T10:51:06;100628.66;;;17.66;83.79
71666;BME280;59503;53.486;10.196;2023-08-07T10:53:35;100654.31;;;17.19;84.48
71666;BME280;59503;53.486;10.196;2023-08-07T10:56:02;100658.84;;;16.99;86.54
71666;BME280;59503;53.486;10.196;2023-08-07T10:58:37;100658.09;;;16.95;92.88
71666;BME280;59503;53.486;10.196;2023-08-07T11:01:39;100654.19;;;16.92;91.09
71666;BME280;59503;53.486;10.196;2023-08-07T11:04:13;100643.06;;;17.06;90.05
71666;BME280;59503;53.486;10.196;2023-08-07T11:06:40;100645.28;;;17.22;91.20
71666;BME280;59503;53.486;10.196;2023-08-07T11:09:07;100632.53;;;17.72;91.52
71666;BME280;59503;53.486;10.196;2023-08-07T11:11:40;100629.41;;;18.00;94.40
71666;BME280;59503;53.486;10.196;2023-08-07T11:14:10;100632.50;;;18.29;87.35
71666;BME280;59503;53.486;10.196;2023-08-07T11:16:36;100635.91;;;18.40;90.14
71666;BME280;59503;53.486;10.196;2023-08-07T11:19:03;100626.19;;;18.32;86.21
71666;BME280;59503;53.486;10.196;2023-08-07T11:21:33;100617.88;;;18.35;93.47
71666;BME280;59503;53.486;10.196;2023-08-07T11:23:58;100632.34;;;18.66;88.98
71666;BME280;59503;53.486;10.196;2023-08-07T11:26:24;100644.25;;;18.83;81.04
71666;BME280;59503;53.486;10.196;2023-08-07T11:28:54;100659.41;;;18.71;82.10
71666;BME280;59503;53.486;10.196;2023-08-07T11:31:19;100660.66;;;18.40;81.21
71666;BME280;59503;53.486;10.196;2023-08-07T11:33:45;100681.63;;;17.74;87.67
71666;BME280;59503;53.486;10.196;2023-08-07T11:36:11;100671.13;;;16.84;100.00
71666;BME280;59503;53.486;10.196;2023-08-07T11:38:41;100678.31;;;16.09;100.00
71666;BME280;59503;53.486;10.196;2023-08-07T11:41:12;100687.81;;;15.83;100.00
71666;BME280;59503;53.486;10.196;2023-08-07T11:43:39;100670.97;;;15.88;100.00
71666;BME280;59503;53.486;10.196;2023-08-07T11:46:07;100673.59;;;16.09;100.00
71666;BME280;59503;53.486;10.196;2023-08-07T11:48:35;100672.19;;;16.49;100.00
71666;BME280;59503;53.486;10.196;2023-08-07T11:51:01;100677.97;;;16.62;100.00
71666;BME280;59503;53.486;10.196;2023-08-07T11:53:34;100658.44;;;16.97;100.00
71666;BME280;59503;53.486;10.196;2023-08-07T11:56:04;100679.81;;;17.19;100.00
71666;BME280;59503;53.486;10.196;2023-08-07T11:58:38;100679.38;;;17.24;100.00
71666;BME280;59503;53.486;10.196;2023-08-07T12:01:12;100690.44;;;17.17;100.00
71666;BME280;59503;53.486;10.196;2023-08-07T12:03:41;100687.09;;;16.96;100.00
71666;BME280;59503;53.486;10.196;2023-08-07T12:06:08;100690.78;;;16.79;100.00
71666;BME280;59503;53.486;10.196;2023-08-07T12:08:38;100712.53;;;16.56;100.00
71666;BME280;59503;53.486;10.196;2023-08-07T12:11:08;100693.38;;;16.49;100.00
71666;BME280;59503;53.486;10.196;2023-08-07T12:13:43;100681.00;;;16.78;100.00
71666;BME280;59503;53.486;10.196;2023-08-07T12:16:10;100681.41;;;16.76;100.00
71666;BME280;59503;53.486;10.196;2023-08-07T12:18:46;100690.22;;;16.98;100.00
71666;BME280;59503;53.486;10.196;2023-08-07T12:21:14;100702.16;;;17.25;100.00
71666;BME280;59503;53.486;10.196;2023-08-07T12:23:40;100705.91;;;17.01;100.00
71666;BME280;59503;53.486;10.196;2023-08-07T12:26:06;100692.44;;;16.69;100.00
71666;BME280;59503;53.486;10.196;2023-08-07T12:28:35;100729.97;;;16.17;100.00
71666;BME280;59503;53.486;10.196;2023-08-07T12:31:01;100733.75;;;15.09;100.00
71666;BME280;59503;53.486;10.196;2023-08-07T12:33:28;100742.34;;;14.76;100.00